Oreye, Belgium
Current Conditions -  °F | °C
As of 1:20 PM on Monday 20 Oct 2014 (Local Time) from EBLG Reporting Station
Broken Clouds Broken Clouds  
Wind Chill: 59°   Ceiling: 3400
Heat Index: 59°   Visibility: 6mi
Dew Point: 52°   Wind: 12mph
Humidity: 77%   Direction: 250°WSW
Pressure: 30.09"   Gusts: NA
Location:  50.72°N, 5.35°E
Report Text: EBLG 201120Z 25010KT 9999 SCT017 BKN034 15/11 Q1019 TEMPO BKN014
Loading
Personal Weather Stations






























Interactive Weather Map
Tropical Storm Tracking
New forecast layout! Learn more

10-Day Weather Forecast

Advertisements
Track Severe Weather on mobile